Time;durP1;ratioP1;P1;durP2;ratioP2;P2;SDS_P1;SDS_P2;PMS_P1;PMS_P2;Temp;Humidity;BMP_temperature;BMP_pressure;BME280_temperature;BME280_humidity;BME280_pressure;Samples;Min_cycle;Max_cycle;Signal;HPM_P1;HPM_P2
2021/03/24 00:00:52;;;;;;;18.08;10.27;;;;;;;3.05;72.89;101450.09;5028754;28;20097;-83
2021/03/24 00:03:17;;;;;;;14.63;8.38;;;;;;;3.04;74.65;101447.53;5028213;28;20033;-83
2021/03/24 00:05:51;;;;;;;13.70;7.07;;;;;;;2.97;72.85;101449.63;5024974;28;20376;-83
2021/03/24 00:08:19;;;;;;;19.48;10.73;;;;;;;2.93;72.71;101451.56;5031592;28;20055;-84
2021/03/24 00:10:44;;;;;;;14.25;7.32;;;;;;;2.80;73.15;101458.34;5026197;28;20490;-84
2021/03/24 00:13:10;;;;;;;17.42;10.77;;;;;;;2.78;73.02;101456.72;5031870;28;20103;-83
2021/03/24 00:15:36;;;;;;;18.42;11.32;;;;;;;2.71;73.08;101461.41;5025885;28;20033;-83
2021/03/24 00:18:04;;;;;;;22.25;13.02;;;;;;;2.65;73.90;101466.97;5031255;28;20445;-83
2021/03/24 00:20:32;;;;;;;20.27;11.18;;;;;;;2.55;73.83;101462.22;5046214;28;20037;-83
2021/03/24 00:22:59;;;;;;;19.50;11.50;;;;;;;2.39;77.27;101470.88;5024549;28;20037;-83
2021/03/24 00:25:25;;;;;;;16.77;10.13;;;;;;;2.26;75.13;101460.19;5032226;28;20041;-82
2021/03/24 00:27:51;;;;;;;16.50;10.05;;;;;;;2.17;77.07;101460.63;5031601;28;20602;-83
2021/03/24 00:30:27;;;;;;;16.52;10.02;;;;;;;2.17;75.94;101465.84;5030555;28;20063;-84
2021/03/24 00:32:52;;;;;;;16.33;9.93;;;;;;;2.13;78.44;101459.94;5033143;28;20405;-84
2021/03/24 00:35:18;;;;;;;17.27;9.80;;;;;;;2.07;77.63;101452.41;5022562;28;20033;-84
2021/03/24 00:37:44;;;;;;;16.77;9.77;;;;;;;2.02;79.13;101457.00;5031739;28;20105;-84
2021/03/24 00:40:15;;;;;;;22.40;12.63;;;;;;;2.02;78.92;101462.22;5032348;28;20061;-82
2021/03/24 00:42:40;;;;;;;24.75;13.18;;;;;;;2.08;75.74;101454.94;5034391;28;20558;-83
2021/03/24 00:45:07;;;;;;;16.95;9.85;;;;;;;1.98;77.22;101463.28;5030827;28;20131;-83
2021/03/24 00:47:32;;;;;;;22.85;11.88;;;;;;;1.82;77.52;101455.34;5012777;28;20094;-82
2021/03/24 00:49:58;;;;;;;20.20;11.30;;;;;;;1.65;77.77;101458.75;5034578;28;20529;-84
2021/03/24 00:52:23;;;;;;;17.52;9.20;;;;;;;1.56;78.00;101456.56;5029316;28;20045;-83
2021/03/24 00:54:48;;;;;;;23.08;12.57;;;;;;;1.58;77.13;101449.53;5032356;28;20112;-83
2021/03/24 00:57:14;;;;;;;20.33;10.82;;;;;;;1.63;76.07;101453.59;5030146;28;20037;-83
2021/03/24 00:59:39;;;;;;;25.52;13.63;;;;;;;1.67;76.19;101456.94;5026927;28;20045;-82
2021/03/24 01:02:04;;;;;;;19.17;9.85;;;;;;;1.61;80.04;101447.63;5031726;28;20886;-83
2021/03/24 01:04:30;;;;;;;20.58;11.25;;;;;;;1.61;80.58;101445.00;5032099;28;20047;-83
2021/03/24 01:06:55;;;;;;;21.75;12.05;;;;;;;1.65;76.92;101446.56;5028268;28;20037;-84
2021/03/24 01:09:20;;;;;;;18.45;10.73;;;;;;;1.60;78.17;101451.16;5031544;28;20065;-84
2021/03/24 01:11:46;;;;;;;18.52;11.13;;;;;;;1.54;78.61;101441.00;5030982;28;20033;-83
2021/03/24 01:14:11;;;;;;;18.38;10.27;;;;;;;1.46;79.65;101443.97;5030864;28;20471;-82
2021/03/24 01:16:37;;;;;;;18.90;10.88;;;;;;;1.43;80.93;101444.13;5030000;28;20030;-84
2021/03/24 01:19:03;;;;;;;13.77;8.23;;;;;;;1.45;80.63;101441.41;5032138;28;20038;-83
2021/03/24 01:21:29;;;;;;;16.88;10.15;;;;;;;1.48;80.90;101436.94;5032294;28;20040;-83
2021/03/24 01:23:54;;;;;;;16.48;10.32;;;;;;;1.46;78.83;101425.72;5031622;28;20034;-83
2021/03/24 01:26:20;;;;;;;16.90;9.70;;;;;;;1.41;78.61;101427.69;5023573;28;20137;-84
2021/03/24 01:28:46;;;;;;;19.15;11.18;;;;;;;1.30;81.46;101422.13;5032332;28;20060;-83
2021/03/24 01:31:11;;;;;;;16.30;9.75;;;;;;;1.26;79.08;101420.56;5024076;28;20033;-84
2021/03/24 01:33:37;;;;;;;14.77;8.50;;;;;;;1.24;78.86;101419.78;5028254;28;20038;-83
2021/03/24 01:36:03;;;;;;;18.63;10.38;;;;;;;1.18;79.91;101414.88;5030521;28;20409;-82
2021/03/24 01:38:28;;;;;;;17.55;10.13;;;;;;;1.16;80.18;101416.69;5033633;28;20034;-83
2021/03/24 01:40:59;;;;;;;18.33;10.77;;;;;;;1.10;79.50;101415.22;5033372;28;20048;-82
2021/03/24 01:43:28;;;;;;;20.33;12.07;;;;;;;0.96;80.61;101425.41;5025018;28;20026;-84
2021/03/24 01:46:20;;;;;;;16.63;10.45;;;;;;;0.89;80.50;101422.22;5017690;28;20157;-83
2021/03/24 01:48:51;;;;;;;12.52;7.82;;;;;;;0.92;80.18;101431.66;5022553;28;20043;-82
2021/03/24 01:51:18;;;;;;;15.48;8.88;;;;;;;0.90;82.08;101418.69;5039198;28;20079;-83
2021/03/24 01:53:44;;;;;;;16.35;9.23;;;;;;;1.01;81.42;101418.25;5039008;28;20102;-83
2021/03/24 01:56:13;;;;;;;19.27;10.20;;;;;;;1.11;79.09;101411.69;5038208;28;20511;-83
2021/03/24 01:58:38;;;;;;;15.48;7.38;;;;;;;1.10;79.91;101423.03;5037114;28;20040;-83
2021/03/24 02:01:23;;;;;;;27.42;13.02;;;;;;;1.17;78.11;101420.97;5038152;28;20106;-82
2021/03/24 02:03:49;;;;;;;20.73;12.50;;;;;;;1.11;79.97;101416.06;5034703;28;20029;-84
2021/03/24 02:06:17;;;;;;;24.15;13.32;;;;;;;1.12;78.67;101412.53;5037828;28;20060;-83
2021/03/24 02:08:48;;;;;;;15.73;9.25;;;;;;;1.12;79.14;101417.75;5034615;28;20109;-82
2021/03/24 02:11:21;;;;;;;16.30;9.55;;;;;;;1.12;80.41;101412.53;5031055;28;20021;-83
2021/03/24 02:13:52;;;;;;;18.60;9.95;;;;;;;1.18;78.73;101418.31;5029844;28;20542;-83
2021/03/24 02:16:28;;;;;;;22.38;11.13;;;;;;;1.17;79.79;101415.78;5035058;28;20056;-84
2021/03/24 02:18:57;;;;;;;21.05;11.80;;;;;;;1.12;81.64;101413.41;5053218;28;20083;-83
2021/03/24 02:21:28;;;;;;;16.30;10.73;;;;;;;1.12;81.18;101410.78;5037590;28;20101;-83
2021/03/24 02:23:58;;;;;;;15.85;9.65;;;;;;;1.06;81.05;101406.69;5036691;28;20290;-83
2021/03/24 02:26:26;;;;;;;19.20;10.73;;;;;;;1.07;81.55;101415.34;5036562;28;20064;-84
2021/03/24 02:28:55;;;;;;;16.45;9.48;;;;;;;1.05;80.41;101417.19;5034940;28;20041;-84
2021/03/24 02:31:22;;;;;;;18.73;11.00;;;;;;;1.07;81.01;101404.91;5036313;28;20426;-84
2021/03/24 02:33:52;;;;;;;16.75;9.57;;;;;;;1.04;81.43;101405.91;5036905;28;20191;-84
2021/03/24 02:36:20;;;;;;;19.27;10.50;;;;;;;1.05;80.79;101410.22;5035138;28;20097;-84
2021/03/24 02:38:48;;;;;;;18.33;10.55;;;;;;;1.08;81.98;101408.41;5033870;28;20041;-83
2021/03/24 02:41:15;;;;;;;24.83;13.02;;;;;;;1.09;80.19;101408.31;5034291;28;20433;-84
2021/03/24 02:43:42;;;;;;;18.17;10.43;;;;;;;1.03;81.22;101396.41;5036162;28;20033;-84
2021/03/24 02:46:10;;;;;;;20.67;11.13;;;;;;;1.12;81.28;101407.31;5033565;28;20283;-82
2021/03/24 02:48:37;;;;;;;19.55;11.20;;;;;;;1.23;80.75;101399.88;5032048;28;20068;-82
2021/03/24 02:51:13;;;;;;;20.50;10.57;;;;;;;1.33;79.82;101390.72;5036719;28;20029;-84
2021/03/24 02:53:40;;;;;;;15.10;8.77;;;;;;;1.36;80.81;101397.53;5035963;28;20025;-83
2021/03/24 02:56:07;;;;;;;17.40;10.00;;;;;;;1.35;80.56;101394.09;5036319;28;20037;-83
2021/03/24 02:58:34;;;;;;;16.80;9.57;;;;;;;1.32;79.26;101403.81;5034832;28;20088;-82
2021/03/24 03:01:01;;;;;;;17.45;9.98;;;;;;;1.19;80.01;101396.59;5036139;28;20120;-84
2021/03/24 03:03:32;;;;;;;20.33;11.48;;;;;;;1.07;80.91;101399.72;5035152;28;20034;-83
2021/03/24 03:06:01;;;;;;;16.58;10.18;;;;;;;1.01;80.45;101395.63;5029741;28;20051;-83
2021/03/24 03:08:30;;;;;;;19.33;11.02;;;;;;;0.98;82.03;101400.16;5033893;28;20034;-83
2021/03/24 03:11:01;;;;;;;19.80;11.57;;;;;;;0.86;81.83;101393.72;5021722;28;20116;-84
2021/03/24 03:13:34;;;;;;;14.02;9.07;;;;;;;0.90;81.69;101391.81;5033100;28;20075;-83
2021/03/24 03:16:31;;;;;;;15.15;8.98;;;;;;;0.96;81.00;101391.56;5024095;28;20098;-84
2021/03/24 03:19:06;;;;;;;20.60;11.02;;;;;;;0.99;81.55;101392.25;5022027;28;20037;-83
2021/03/24 03:21:39;;;;;;;17.80;9.88;;;;;;;1.03;81.61;101393.81;5028797;28;20041;-84
2021/03/24 03:24:06;;;;;;;18.23;9.45;;;;;;;1.06;81.67;101392.81;5033561;28;20095;-83
2021/03/24 03:26:34;;;;;;;16.95;9.70;;;;;;;1.06;81.93;101398.88;5031665;28;20033;-84
2021/03/24 03:29:07;;;;;;;20.10;10.88;;;;;;;1.06;80.86;101395.44;5018511;28;20029;-83
2021/03/24 03:31:37;;;;;;;17.25;9.35;;;;;;;0.99;80.26;101401.84;5033633;28;20030;-83
2021/03/24 03:34:05;;;;;;;17.48;9.90;;;;;;;0.96;81.54;101400.22;5031972;28;20095;-84
2021/03/24 03:36:33;;;;;;;16.30;9.00;;;;;;;0.94;80.77;101393.38;5032043;28;20091;-83
2021/03/24 03:39:00;;;;;;;18.15;9.90;;;;;;;0.88;80.33;101394.47;5023227;28;20117;-84
2021/03/24 03:41:26;;;;;;;19.42;10.52;;;;;;;0.84;81.02;101400.75;5033112;28;20030;-83
2021/03/24 03:43:55;;;;;;;15.30;9.10;;;;;;;0.83;82.74;101396.44;5023009;28;20040;-83
2021/03/24 03:46:25;;;;;;;15.60;9.18;;;;;;;0.84;80.63;101401.59;5032678;28;20260;-83
2021/03/24 03:48:50;;;;;;;17.50;10.23;;;;;;;0.76;81.34;101400.25;5032373;28;20067;-83
2021/03/24 03:51:50;;;;;;;20.45;10.75;;;;;;;0.68;82.04;101403.19;5033394;28;20025;-83
2021/03/24 03:54:25;;;;;;;15.40;9.65;;;;;;;0.68;81.43;101404.94;4998194;28;20041;-83
2021/03/24 03:56:59;;;;;;;20.08;11.73;;;;;;;0.67;80.49;101401.50;5032107;28;20124;-83
2021/03/24 03:59:36;;;;;;;29.20;15.85;;;;;;;0.61;80.12;101405.19;5032776;28;20030;-83
2021/03/24 04:02:05;;;;;;;29.90;16.08;;;;;;;0.51;81.31;101409.13;5029970;28;20076;-83
2021/03/24 04:04:40;;;;;;;28.02;15.02;;;;;;;0.45;81.41;101403.31;5033597;28;20048;-84
2021/03/24 04:07:17;;;;;;;24.05;13.55;;;;;;;0.39;81.36;101405.28;5023565;28;20041;-83
2021/03/24 04:09:44;;;;;;;29.67;15.88;;;;;;;0.35;81.56;101408.06;5032283;28;20029;-84
2021/03/24 04:12:13;;;;;;;27.65;14.07;;;;;;;0.29;82.51;101406.59;5031524;28;20029;-83
2021/03/24 04:14:41;;;;;;;18.55;11.07;;;;;;;0.28;82.05;101409.25;5026888;28;20084;-83
2021/03/24 04:17:15;;;;;;;18.40;10.85;;;;;;;0.30;82.16;101404.81;5024926;28;20044;-81
2021/03/24 04:19:45;;;;;;;21.13;11.93;;;;;;;0.33;81.00;101415.09;5034056;28;20491;-83
2021/03/24 04:22:13;;;;;;;19.75;10.77;;;;;;;0.31;81.15;101402.16;5044422;28;20054;-82
2021/03/24 04:24:43;;;;;;;16.55;9.02;;;;;;;0.30;81.27;101413.47;5032540;28;20049;-83
2021/03/24 04:27:13;;;;;;;17.63;10.18;;;;;;;0.28;82.93;101414.44;5031848;28;20034;-83
2021/03/24 04:29:56;;;;;;;23.95;12.85;;;;;;;0.27;81.84;101412.75;5031428;28;20494;-83
2021/03/24 04:32:21;;;;;;;27.50;14.50;;;;;;;0.30;81.01;101402.22;5031981;28;20056;-83
2021/03/24 04:34:46;;;;;;;25.02;13.98;;;;;;;0.28;80.92;101398.84;5031693;28;20123;-84
2021/03/24 04:37:25;;;;;;;32.78;15.48;;;;;;;0.26;81.67;101391.09;5032306;28;20129;-82
2021/03/24 04:39:52;;;;;;;18.38;10.35;;;;;;;0.25;83.82;101406.78;5027216;28;20136;-82
2021/03/24 04:42:23;;;;;;;19.48;10.98;;;;;;;0.24;83.76;101407.66;5021064;28;20551;-82
2021/03/24 04:44:55;;;;;;;19.20;10.82;;;;;;;0.20;82.36;101407.81;5028752;28;20033;-84
2021/03/24 04:47:28;;;;;;;23.35;11.98;;;;;;;0.22;83.09;101406.91;5027210;28;20038;-83
2021/03/24 04:49:59;;;;;;;19.08;10.55;;;;;;;0.24;83.92;101398.13;5030472;28;20033;-83
2021/03/24 04:52:26;;;;;;;21.88;11.38;;;;;;;0.27;83.52;101398.00;5027295;28;20399;-82
2021/03/24 04:54:56;;;;;;;19.40;10.20;;;;;;;0.25;82.07;101396.38;5029946;28;20188;-83
2021/03/24 04:57:25;;;;;;;21.98;11.85;;;;;;;0.14;82.89;101402.00;5029678;28;20105;-81
2021/03/24 04:59:57;;;;;;;20.90;12.10;;;;;;;-0.02;83.46;101397.44;5031846;28;20128;-83
2021/03/24 05:02:33;;;;;;;19.67;10.57;;;;;;;-0.07;83.67;101398.50;5031395;28;20025;-82
2021/03/24 05:05:04;;;;;;;24.45;14.80;;;;;;;-0.26;83.69;101407.06;5025188;28;20034;-81
2021/03/24 05:07:50;;;;;;;25.45;13.73;;;;;;;-0.39;84.53;101407.59;5027918;28;20683;-84
2021/03/24 05:10:22;;;;;;;21.67;11.32;;;;;;;-0.32;85.74;101402.09;5022699;28;20101;-83
2021/03/24 05:12:55;;;;;;;19.70;10.85;;;;;;;-0.16;83.08;101402.34;5027986;28;20037;-82
2021/03/24 05:15:26;;;;;;;19.60;11.02;;;;;;;-0.09;85.06;101411.59;5021501;28;20384;-81
2021/03/24 05:17:53;;;;;;;24.88;13.93;;;;;;;-0.20;83.91;101411.16;5026831;28;20069;-82
2021/03/24 05:20:31;;;;;;;19.42;9.90;;;;;;;-0.24;84.07;101418.25;5026541;28;20049;-81
2021/03/24 05:22:57;;;;;;;19.80;11.07;;;;;;;-0.14;86.20;101415.28;5025775;28;20041;-82
2021/03/24 05:25:36;;;;;;;24.40;12.57;;;;;;;0.00;83.52;101420.78;5026923;28;20038;-83
2021/03/24 05:28:11;;;;;;;25.77;14.45;;;;;;;0.05;82.29;101418.84;5025758;28;20034;-81
2021/03/24 05:30:39;;;;;;;22.13;12.48;;;;;;;-0.03;83.54;101424.34;5029812;28;20043;-83
2021/03/24 05:33:13;;;;;;;26.00;12.95;;;;;;;0.03;82.72;101425.84;5028162;28;20033;-83
2021/03/24 05:35:44;;;;;;;22.45;12.63;;;;;;;0.02;83.23;101418.94;5023107;28;20108;-84
2021/03/24 05:38:20;;;;;;;23.25;11.52;;;;;;;0.05;82.60;101420.56;5026235;28;20061;-81
2021/03/24 05:41:28;;;;;;;19.40;10.40;;;;;;;0.12;82.88;101416.81;5030158;28;20041;-82
2021/03/24 05:44:23;;;;;;;29.13;15.20;;;;;;;0.25;82.04;101420.63;5010539;28;20038;-83
2021/03/24 05:47:01;;;;;;;20.80;11.93;;;;;;;0.24;83.26;101418.94;5017486;28;20072;-81
2021/03/24 05:50:08;;;;;;;22.77;12.50;;;;;;;0.09;83.53;101428.19;5023960;28;20591;-81
2021/03/24 05:52:58;;;;;;;21.75;12.07;;;;;;;0.00;83.58;101431.19;5015117;28;20057;-82
2021/03/24 05:55:51;;;;;;;21.90;12.50;;;;;;;-0.07;84.03;101440.13;5019177;28;20036;-84
2021/03/24 05:58:30;;;;;;;26.05;14.10;;;;;;;-0.12;85.30;101442.06;5029499;28;20399;-82
2021/03/24 06:01:04;;;;;;;21.20;11.38;;;;;;;-0.05;85.15;101449.56;5022948;28;20159;-82
2021/03/24 06:03:33;;;;;;;19.30;10.60;;;;;;;0.07;85.08;101449.97;5029611;28;20049;-84
2021/03/24 06:06:35;;;;;;;22.13;12.52;;;;;;;0.26;85.66;101448.31;5028643;28;20034;-82
2021/03/24 06:09:39;;;;;;;23.63;12.80;;;;;;;0.89;83.50;101448.28;5018939;28;20041;-82
2021/03/24 06:12:16;;;;;;;17.52;10.90;;;;;;;1.54;82.08;101453.19;5028579;28;20029;-83
2021/03/24 06:14:41;;;;;;;19.02;10.15;;;;;;;2.18;78.87;101467.56;5029587;28;20041;-82
2021/03/24 06:17:29;;;;;;;14.57;8.53;;;;;;;2.48;78.32;101466.06;5031526;28;20064;-82
2021/03/24 06:20:25;;;;;;;14.45;8.48;;;;;;;2.89;77.77;101470.09;5034076;28;20292;-82
2021/03/24 06:23:16;;;;;;;14.60;7.88;;;;;;;3.70;78.78;101468.38;5029854;28;20128;-84
2021/03/24 06:25:47;;;;;;;14.55;7.25;;;;;;;4.28;77.81;101466.88;5024485;28;20108;-83
2021/03/24 06:28:42;;;;;;;11.30;6.15;;;;;;;4.96;74.35;101461.16;5030319;28;20029;-83
2021/03/24 06:31:20;;;;;;;11.43;6.38;;;;;;;5.57;74.37;101463.53;5024231;28;20033;-83
2021/03/24 06:34:16;;;;;;;10.18;5.80;;;;;;;6.10;74.79;101468.03;5029242;28;20029;-83
2021/03/24 06:37:18;;;;;;;11.75;7.20;;;;;;;6.52;72.75;101479.25;5024926;28;20029;-83
2021/03/24 06:40:26;;;;;;;10.23;7.10;;;;;;;6.89;71.80;101475.94;5031328;28;20438;-84
2021/03/24 06:43:25;;;;;;;10.60;6.20;;;;;;;7.43;70.60;101473.06;5032616;28;20033;-84
2021/03/24 06:46:12;;;;;;;12.20;7.72;;;;;;;7.77;70.02;101471.53;5034167;28;20398;-83
2021/03/24 06:49:15;;;;;;;10.55;6.53;;;;;;;8.37;70.39;101476.84;5029447;28;20347;-83
2021/03/24 06:52:27;;;;;;;11.73;7.40;;;;;;;8.85;70.30;101476.78;5029658;28;20040;-83
2021/03/24 06:55:23;;;;;;;13.27;7.45;;;;;;;9.12;71.37;101476.44;5031821;28;20049;-84
2021/03/24 06:58:35;;;;;;;10.20;6.45;;;;;;;9.07;62.57;101473.31;5049233;28;20107;-84
2021/03/24 07:01:06;;;;;;;;;;;;;;;9.43;67.66;101472.25;5009037;28;20060;-84
2021/03/24 07:03:37;;;;;;;15.32;9.45;;;;;;;9.79;63.76;101473.75;5031416;28;19940;-85
2021/03/24 07:06:22;;;;;;;;;;;;;;;10.18;64.82;101475.94;5029131;28;20035;-84
2021/03/24 07:09:31;;;;;;;16.85;10.95;;;;;;;10.18;62.55;101468.84;5035697;28;20410;-83
2021/03/24 07:12:11;;;;;;;15.07;9.65;;;;;;;10.67;59.79;101474.50;4991557;28;20033;-83
2021/03/24 07:14:44;;;;;;;15.35;8.95;;;;;;;10.65;62.30;101472.97;5031227;28;20033;-83
2021/03/24 07:17:25;;;;;;;13.38;8.55;;;;;;;10.79;58.63;101478.78;5034049;28;20041;-83
2021/03/24 07:20:15;;;;;;;13.30;8.85;;;;;;;11.20;58.48;101481.50;5034044;28;20033;-83
2021/03/24 07:22:40;;;;;;;13.45;8.52;;;;;;;11.63;60.20;101483.03;5023569;28;20046;-83
2021/03/24 07:25:18;;;;;;;16.73;11.03;;;;;;;11.93;54.15;101481.34;5017769;28;20300;-83
2021/03/24 07:27:57;;;;;;;11.35;7.35;;;;;;;11.99;53.48;101476.34;5032772;28;20284;-84
2021/03/24 07:30:24;;;;;;;12.15;6.78;;;;;;;12.66;58.43;101485.25;5014167;28;20395;-84
2021/03/24 07:32:56;;;;;;;11.75;8.27;;;;;;;12.86;51.25;101485.22;5024592;28;20045;-84
2021/03/24 07:35:24;;;;;;;;;;;;;;;13.03;46.28;101481.81;5034790;28;20030;-84
2021/03/24 07:38:20;;;;;;;11.00;7.40;;;;;;;13.68;53.03;101479.22;5033186;28;19960;-83
2021/03/24 07:41:27;;;;;;;15.23;10.05;;;;;;;13.77;46.21;101480.13;5032096;28;20037;-83
2021/03/24 07:44:11;;;;;;;19.38;13.82;;;;;;;14.52;47.85;101478.03;5026022;28;20033;-83
2021/03/24 07:47:04;;;;;;;16.48;10.98;;;;;;;14.45;48.54;101479.63;5033347;28;20033;-84
2021/03/24 07:49:42;;;;;;;14.52;9.80;;;;;;;14.38;46.85;101489.22;5032806;28;20033;-83
2021/03/24 07:52:20;;;;;;;17.85;12.32;;;;;;;14.38;46.21;101494.53;5033003;28;20022;-83
2021/03/24 07:55:12;;;;;;;16.75;10.85;;;;;;;13.87;44.98;101488.91;5027477;28;20033;-85
2021/03/24 07:57:43;;;;;;;18.45;11.88;;;;;;;13.56;46.52;101494.53;5033729;28;20030;-84
2021/03/24 08:00:34;;;;;;;15.73;10.70;;;;;;;14.65;47.43;101502.44;5014849;28;20491;-83
2021/03/24 08:03:08;;;;;;;14.02;9.48;;;;;;;14.68;44.59;101498.63;5028576;28;20132;-83
2021/03/24 08:05:51;;;;;;;16.70;11.73;;;;;;;14.21;44.38;101489.06;5032737;28;20200;-83
2021/03/24 08:08:25;;;;;;;19.45;13.13;;;;;;;13.66;44.52;101486.50;5027832;28;20038;-83
2021/03/24 08:11:03;;;;;;;15.70;11.27;;;;;;;14.25;44.20;101484.25;5031900;28;20099;-83
2021/03/24 08:13:40;;;;;;;23.75;15.73;;;;;;;15.28;43.44;101480.03;5023359;28;20029;-83
2021/03/24 08:16:11;;;;;;;20.10;13.63;;;;;;;15.43;42.03;101482.09;5018317;28;20052;-83
2021/03/24 08:18:58;;;;;;;20.48;14.38;;;;;;;15.20;41.59;101479.16;5026373;28;20034;-83
2021/03/24 08:21:40;;;;;;;19.50;14.27;;;;;;;15.37;39.96;101480.06;5026825;28;20516;-83
2021/03/24 08:24:38;;;;;;;21.00;15.35;;;;;;;15.89;39.15;101480.78;5018442;28;20056;-83
2021/03/24 08:27:22;;;;;;;22.00;14.40;;;;;;;15.89;40.09;101482.59;5025450;28;20561;-83
2021/03/24 08:30:01;;;;;;;15.75;11.65;;;;;;;14.61;43.02;101493.09;5033144;28;20049;-83
2021/03/24 08:32:45;;;;;;;17.23;12.32;;;;;;;15.34;41.69;101488.38;5031897;28;20082;-83
2021/03/24 08:35:42;;;;;;;17.85;12.35;;;;;;;15.35;41.28;101485.56;5031670;28;20097;-83
2021/03/24 08:38:26;;;;;;;14.95;10.57;;;;;;;15.37;40.02;101485.41;5031054;28;20277;-83
2021/03/24 08:41:21;;;;;;;18.27;14.00;;;;;;;15.81;39.61;101487.94;5021932;28;20038;-83
2021/03/24 08:44:01;;;;;;;18.60;12.10;;;;;;;16.48;39.63;101485.19;5032262;28;20356;-83
2021/03/24 08:46:30;;;;;;;22.58;16.08;;;;;;;17.10;37.84;101484.63;5027149;28;20052;-83
2021/03/24 08:49:01;;;;;;;19.58;13.27;;;;;;;17.30;37.64;101477.03;5032554;28;20057;-83
2021/03/24 08:51:26;;;;;;;;;;;;;;;17.69;36.62;101486.94;5029717;28;20089;-82
2021/03/24 08:54:25;;;;;;;20.48;14.35;;;;;;;17.38;37.42;101474.34;5021904;28;19967;-84
2021/03/24 08:57:16;;;;;;;21.02;14.57;;;;;;;17.81;36.91;101478.34;5019914;28;20041;-83
2021/03/24 08:59:52;;;;;;;23.52;15.48;;;;;;;18.16;34.82;101473.44;5029244;28;20037;-83
2021/03/24 09:02:38;;;;;;;21.80;15.20;;;;;;;16.14;39.02;101481.66;5017448;28;20483;-83
2021/03/24 09:05:26;;;;;;;23.75;15.45;;;;;;;17.51;35.69;101473.78;5023531;28;20033;-83
2021/03/24 09:08:00;;;;;;;16.45;12.18;;;;;;;17.81;35.46;101466.81;5025334;28;20085;-83
2021/03/24 09:10:28;;;;;;;15.38;10.60;;;;;;;17.44;36.17;101465.63;5028764;28;20045;-84
2021/03/24 09:13:36;;;;;;;17.02;11.95;;;;;;;18.89;33.09;101461.25;5031857;28;20029;-83
2021/03/24 09:16:13;;;;;;;17.52;13.00;;;;;;;17.49;37.20;101463.25;5019358;28;20030;-84
2021/03/24 09:18:55;;;;;;;20.70;15.55;;;;;;;18.95;33.01;101466.91;5033412;28;20129;-84
2021/03/24 09:21:25;;;;;;;20.92;13.50;;;;;;;18.92;32.56;101467.28;5022798;28;20101;-84
2021/03/24 09:24:10;;;;;;;23.73;15.52;;;;;;;19.36;32.14;101467.28;5031362;28;20033;-84
2021/03/24 09:27:15;;;;;;;22.48;15.60;;;;;;;19.45;31.78;101454.56;5030731;28;20112;-84
2021/03/24 09:30:09;;;;;;;21.42;16.05;;;;;;;18.80;33.61;101461.53;5000696;28;20103;-84
2021/03/24 09:32:39;;;;;;;22.38;15.73;;;;;;;19.16;32.80;101456.25;5027502;28;20037;-83
2021/03/24 09:35:29;;;;;;;17.40;12.57;;;;;;;18.96;33.99;101452.50;5024172;28;20045;-84
2021/03/24 09:38:06;;;;;;;14.20;10.45;;;;;;;18.41;35.63;101451.81;5020768;28;20060;-84
2021/03/24 09:40:48;;;;;;;18.77;14.02;;;;;;;17.15;35.81;101437.66;5031046;28;20131;-84
2021/03/24 09:43:26;;;;;;;23.25;15.38;;;;;;;17.30;36.98;101440.44;5017448;28;20033;-84
2021/03/24 09:46:00;;;;;;;20.92;15.25;;;;;;;16.40;38.21;101423.78;5032262;28;20046;-84
2021/03/24 09:48:26;;;;;;;22.40;13.57;;;;;;;15.60;39.59;101432.34;5024060;28;20088;-84
2021/03/24 09:51:15;;;;;;;20.83;14.00;;;;;;;15.82;41.40;101428.25;5031811;28;20519;-84
2021/03/24 09:53:42;;;;;;;20.38;16.15;;;;;;;16.26;39.28;101423.47;5024040;28;20038;-84
2021/03/24 09:56:15;;;;;;;26.45;17.85;;;;;;;16.39;38.86;101424.78;5031912;28;20104;-85
2021/03/24 09:58:55;;;;;;;22.52;15.38;;;;;;;15.62;40.18;101417.03;5026177;28;20545;-85
2021/03/24 10:01:34;;;;;;;19.30;14.27;;;;;;;14.43;42.57;101423.88;5025792;28;20120;-84
2021/03/24 10:04:30;;;;;;;17.55;13.00;;;;;;;13.37;46.86;101409.56;5025543;28;20034;-83
2021/03/24 10:07:09;;;;;;;22.10;14.75;;;;;;;13.71;45.09;101417.78;5022551;28;20558;-83
2021/03/24 10:09:38;;;;;;;17.40;11.27;;;;;;;14.29;43.50;101419.13;5025304;28;20034;-83
2021/03/24 10:12:18;;;;;;;16.08;10.32;;;;;;;14.46;41.52;101422.75;5029647;28;20037;-83
2021/03/24 10:15:08;;;;;;;19.33;13.80;;;;;;;14.44;42.70;101419.41;5034164;28;20029;-83
2021/03/24 10:17:52;;;;;;;23.10;15.57;;;;;;;15.06;39.82;101409.50;5014974;28;20129;-83
2021/03/24 10:20:33;;;;;;;19.70;13.65;;;;;;;14.76;41.43;101410.84;5029560;28;20113;-83
2021/03/24 10:23:00;;;;;;;22.83;15.23;;;;;;;14.73;42.14;101413.81;5021463;28;20478;-83
2021/03/24 10:25:41;;;;;;;22.17;15.65;;;;;;;14.84;41.50;101413.53;5029577;28;20042;-82
2021/03/24 10:28:14;;;;;;;20.70;14.33;;;;;;;14.44;41.40;101409.63;5027179;28;20405;-82
2021/03/24 10:30:54;;;;;;;17.20;12.80;;;;;;;13.57;43.80;101407.66;5033212;28;20034;-82
2021/03/24 10:33:32;;;;;;;19.95;14.07;;;;;;;13.57;44.49;101400.50;5024419;28;20030;-83
2021/03/24 10:36:05;;;;;;;18.80;12.32;;;;;;;13.22;46.39;101403.06;5026429;28;20519;-82
2021/03/24 10:38:48;;;;;;;19.02;13.05;;;;;;;13.48;44.73;101404.06;5032306;28;20501;-82
2021/03/24 10:41:28;;;;;;;20.65;14.13;;;;;;;13.79;43.48;101409.03;5033218;28;20457;-82
2021/03/24 10:44:06;;;;;;;22.13;15.35;;;;;;;13.62;43.24;101402.72;5022488;28;20100;-81
2021/03/24 10:46:36;;;;;;;24.25;15.90;;;;;;;13.69;42.93;101403.78;5033713;28;20033;-83
2021/03/24 10:49:25;;;;;;;22.17;14.75;;;;;;;13.67;42.69;101396.97;5016923;28;20488;-81
2021/03/24 10:52:04;;;;;;;21.10;13.57;;;;;;;13.50;43.62;101394.13;5017879;28;20038;-82
2021/03/24 10:54:33;;;;;;;17.23;12.20;;;;;;;13.11;45.39;101383.69;5018313;28;20034;-83
2021/03/24 10:57:24;;;;;;;22.83;15.27;;;;;;;13.32;44.79;101388.81;5025866;28;20433;-82
2021/03/24 11:00:05;;;;;;;21.90;14.90;;;;;;;13.57;42.94;101384.56;5021860;28;20038;-82
2021/03/24 11:02:39;;;;;;;20.98;14.10;;;;;;;13.55;43.11;101383.88;5020276;28;20275;-82
2021/03/24 11:05:12;;;;;;;22.30;14.70;;;;;;;13.50;42.09;101377.34;5027372;28;20083;-82
2021/03/24 11:07:45;;;;;;;20.35;12.63;;;;;;;13.49;41.49;101378.31;5035617;28;20038;-82
2021/03/24 11:10:10;;;;;;;22.88;14.70;;;;;;;13.48;42.14;101374.00;5028559;28;20455;-83
2021/03/24 11:12:40;;;;;;;18.23;12.50;;;;;;;13.36;43.89;101365.41;5032986;28;20037;-82
2021/03/24 11:15:27;;;;;;;24.02;15.18;;;;;;;13.64;43.03;101368.88;5030642;28;20526;-83
2021/03/24 11:18:02;;;;;;;20.40;13.73;;;;;;;13.08;45.46;101353.94;5032253;28;20069;-82
2021/03/24 11:20:42;;;;;;;19.20;11.73;;;;;;;12.92;44.54;101351.94;5015178;28;20034;-82
2021/03/24 11:23:11;;;;;;;17.52;11.10;;;;;;;13.25;43.62;101349.66;5029207;28;20402;-83
2021/03/24 11:25:48;;;;;;;16.00;10.50;;;;;;;13.22;44.53;101347.28;5033845;28;20124;-82
2021/03/24 11:28:27;;;;;;;18.05;12.13;;;;;;;13.03;44.16;101348.25;5019435;28;20514;-81
2021/03/24 11:31:13;;;;;;;17.15;11.93;;;;;;;13.20;44.12;101343.94;5025933;28;20073;-82
2021/03/24 11:33:44;;;;;;;22.13;14.43;;;;;;;12.93;44.92;101343.81;5027184;28;20083;-82
2021/03/24 11:36:37;;;;;;;21.05;12.85;;;;;;;13.18;43.73;101344.94;5035368;28;20093;-82
2021/03/24 11:39:23;;;;;;;22.20;13.43;;;;;;;13.44;42.62;101343.41;5041226;28;20049;-82
2021/03/24 11:41:49;;;;;;;19.75;13.93;;;;;;;13.70;42.12;101343.50;5042560;28;20212;-83
2021/03/24 11:44:18;;;;;;;19.48;12.45;;;;;;;13.45;43.49;101345.09;5055312;28;20040;-82
2021/03/24 11:46:43;;;;;;;19.10;13.05;;;;;;;13.45;42.58;101340.59;5039278;28;20034;-83
2021/03/24 11:49:36;;;;;;;17.52;11.38;;;;;;;13.37;43.67;101336.06;5054325;28;20049;-84
2021/03/24 11:52:35;;;;;;;20.83;13.25;;;;;;;13.61;42.81;101342.59;5030303;28;20429;-82
2021/03/24 11:55:42;;;;;;;16.33;11.32;;;;;;;13.67;42.52;101328.69;5030705;28;20057;-83
2021/03/24 11:58:36;;;;;;;19.20;11.75;;;;;;;13.66;44.06;101327.03;5030408;28;20054;-83